createdAt,value
2022-09-26T00:01:22.121Z,100947.63
2022-09-26T00:03:52.154Z,100947.63
2022-09-26T00:06:20.073Z,100944.06
2022-09-26T00:08:48.012Z,100939.72
2022-09-26T00:11:20.859Z,100930.13
2022-09-26T00:13:52.769Z,100926.94
2022-09-26T00:16:20.247Z,100916.66
2022-09-26T00:18:51.429Z,100922.72
2022-09-26T00:21:18.609Z,100918.34
2022-09-26T00:23:45.620Z,100915.81
2022-09-26T00:26:17.877Z,100905.53
2022-09-26T00:28:44.501Z,100898.56
2022-09-26T00:31:18.562Z,100888.03
2022-09-26T00:33:45.070Z,100885.63
2022-09-26T00:36:11.727Z,100877.09
2022-09-26T00:38:39.057Z,100870.31
2022-09-26T00:41:06.125Z,100866.84
2022-09-26T00:43:38.753Z,100860.69
2022-09-26T00:46:37.474Z,100853.00
2022-09-26T00:49:37.921Z,100838.31
2022-09-26T00:52:06.718Z,100833.22
2022-09-26T00:54:36.345Z,100825.28
2022-09-26T00:57:10.995Z,100820.00
2022-09-26T00:59:43.837Z,100810.31
2022-09-26T01:02:11.386Z,100808.53
2022-09-26T01:04:41.453Z,100788.41
2022-09-26T01:07:14.331Z,100786.63
2022-09-26T01:09:41.015Z,100773.78
2022-09-26T01:12:08.863Z,100772.13
2022-09-26T01:14:37.834Z,100758.22
2022-09-26T01:17:05.149Z,100755.53
2022-09-26T01:19:43.256Z,100751.16
2022-09-26T01:22:35.732Z,100739.69
2022-09-26T01:25:24.089Z,100736.25
2022-09-26T01:28:08.972Z,100735.50
2022-09-26T01:30:56.497Z,100729.38
2022-09-26T01:33:25.977Z,100723.47
2022-09-26T01:36:11.247Z,100727.78
2022-09-26T01:39:14.988Z,100726.84
2022-09-26T01:42:07.284Z,100712.03
2022-09-26T01:44:49.157Z,100705.97
2022-09-26T01:47:31.943Z,100708.66
2022-09-26T01:50:12.749Z,100714.81
2022-09-26T01:52:59.577Z,100697.59
2022-09-26T01:55:46.485Z,100693.28
2022-09-26T01:58:18.728Z,100694.13
2022-09-26T02:00:47.923Z,100683.69
2022-09-26T02:03:19.507Z,100684.56
2022-09-26T02:05:58.325Z,100673.38
2022-09-26T02:08:28.633Z,100669.81
2022-09-26T02:11:08.065Z,100666.28
2022-09-26T02:13:46.609Z,100667.28
2022-09-26T02:16:22.930Z,100665.72
2022-09-26T02:19:06.718Z,100661.53
2022-09-26T02:21:33.159Z,100654.13
2022-09-26T02:23:59.613Z,100650.69
2022-09-26T02:26:26.725Z,100649.78
2022-09-26T02:28:53.122Z,100636.88
2022-09-26T02:31:23.460Z,100628.50
2022-09-26T02:33:51.638Z,100632.13
2022-09-26T02:36:22.158Z,100614.59
2022-09-26T02:38:48.777Z,100616.56
2022-09-26T02:41:37.649Z,100612.94
2022-09-26T02:44:44.873Z,100618.16
2022-09-26T02:47:33.639Z,100621.78
2022-09-26T02:50:11.802Z,100611.66
2022-09-26T02:52:38.072Z,100609.94
2022-09-26T02:55:37.691Z,100597.75
2022-09-26T02:58:20.563Z,100598.84
2022-09-26T03:00:59.173Z,100587.69
2022-09-26T03:03:57.620Z,100584.16
2022-09-26T03:06:30.242Z,100584.16
2022-09-26T03:08:58.815Z,100567.84
2022-09-26T03:11:28.481Z,100572.31
2022-09-26T03:13:57.978Z,100565.53
2022-09-26T03:16:28.689Z,100559.47
2022-09-26T03:19:14.399Z,100546.53
2022-09-26T03:21:41.002Z,100546.06
2022-09-26T03:24:07.479Z,100534.72
2022-09-26T03:26:34.833Z,100534.63
2022-09-26T03:29:01.259Z,100529.31
2022-09-26T03:31:28.273Z,100520.75
2022-09-26T03:33:54.767Z,100516.50
2022-09-26T03:36:22.443Z,100514.72
2022-09-26T03:38:48.840Z,100504.44
2022-09-26T03:41:15.230Z,100508.00
2022-09-26T03:43:43.649Z,100496.84
2022-09-26T03:46:12.277Z,100489.84
2022-09-26T03:48:39.276Z,100489.03
2022-09-26T03:51:08.711Z,100489.09
2022-09-26T03:53:37.772Z,100486.56
2022-09-26T03:56:16.294Z,100471.81
2022-09-26T03:58:43.648Z,100463.13
2022-09-26T04:01:12.966Z,100459.63
2022-09-26T04:03:46.431Z,100448.25
2022-09-26T04:06:19.702Z,100435.34
2022-09-26T04:08:48.036Z,100441.38
2022-09-26T04:11:19.148Z,100438.94
2022-09-26T04:13:51.852Z,100430.28
2022-09-26T04:16:23.729Z,100417.25
2022-09-26T04:18:56.675Z,100416.44
2022-09-26T04:21:24.561Z,100405.34
2022-09-26T04:23:53.063Z,100401.91
2022-09-26T04:26:23.665Z,100395.78
2022-09-26T04:28:54.596Z,100387.22
2022-09-26T04:31:22.154Z,100381.06
2022-09-26T04:33:49.015Z,100379.31
2022-09-26T04:36:16.975Z,100374.94
2022-09-26T04:38:43.534Z,100364.53
2022-09-26T04:41:16.318Z,100361.19
2022-09-26T04:43:42.795Z,100360.25
2022-09-26T04:46:14.954Z,100359.31
2022-09-26T04:48:44.852Z,100354.19
2022-09-26T04:51:13.242Z,100344.69
2022-09-26T04:53:41.450Z,100344.59
2022-09-26T04:56:09.770Z,100336.88
2022-09-26T04:58:38.031Z,100333.53
2022-09-26T05:01:06.842Z,100317.38
2022-09-26T05:03:33.655Z,100300.25
2022-09-26T05:06:00.184Z,100302.19
2022-09-26T05:08:26.921Z,100303.06
2022-09-26T05:10:55.639Z,100300.53
2022-09-26T05:13:26.258Z,100291.78
2022-09-26T05:15:55.700Z,100287.50
2022-09-26T05:18:23.511Z,100286.69
2022-09-26T05:20:50.795Z,100280.81
2022-09-26T05:23:44.387Z,100286.13
2022-09-26T05:26:23.314Z,100290.28
2022-09-26T05:29:06.927Z,100291.25
2022-09-26T05:31:37.716Z,100280.91
2022-09-26T05:34:13.098Z,100275.78
2022-09-26T05:36:42.894Z,100273.19
2022-09-26T05:39:29.387Z,100274.13
2022-09-26T05:41:55.831Z,100262.16
2022-09-26T05:44:22.473Z,100256.09
2022-09-26T05:46:50.227Z,100261.31
2022-09-26T05:49:16.760Z,100249.28
2022-09-26T05:51:43.156Z,100249.41
2022-09-26T05:54:10.137Z,100242.50
2022-09-26T05:56:37.362Z,100238.25
2022-09-26T05:59:04.746Z,100235.75
2022-09-26T06:01:33.529Z,100229.72
2022-09-26T06:03:59.978Z,100222.81
2022-09-26T06:06:26.709Z,100217.59
2022-09-26T06:08:53.054Z,100217.81
2022-09-26T06:11:30.794Z,100209.34
2022-09-26T06:14:00.617Z,100196.41
2022-09-26T06:16:28.333Z,100189.47
2022-09-26T06:18:55.707Z,100192.06
2022-09-26T06:21:22.864Z,100185.09
2022-09-26T06:23:49.291Z,100175.50
2022-09-26T06:26:23.506Z,100166.66
2022-09-26T06:28:54.814Z,100171.03
2022-09-26T06:31:21.924Z,100166.88
2022-09-26T06:33:55.249Z,100158.03
2022-09-26T06:36:23.482Z,100155.22
2022-09-26T06:38:50.398Z,100148.34
2022-09-26T06:41:17.228Z,100150.00
2022-09-26T06:43:47.292Z,100143.06
2022-09-26T06:46:15.178Z,100126.41
2022-09-26T06:48:42.084Z,100126.31
2022-09-26T06:51:09.312Z,100113.91
2022-09-26T06:53:35.712Z,100113.09
2022-09-26T06:56:02.540Z,100113.16
2022-09-26T06:58:29.090Z,100094.78
2022-09-26T07:00:56.545Z,100111.97
2022-09-26T07:03:26.919Z,100098.72
2022-09-26T07:05:57.276Z,100091.47
2022-09-26T07:08:43.224Z,100085.22
2022-09-26T07:11:32.666Z,100086.59
2022-09-26T07:14:00.155Z,100069.19
2022-09-26T07:16:26.937Z,100067.22
2022-09-26T07:18:54.077Z,100062.75
2022-09-26T07:21:20.454Z,100076.50
2022-09-26T07:23:46.896Z,100053.81
2022-09-26T07:26:13.255Z,100054.63
2022-09-26T07:28:40.008Z,100062.44
2022-09-26T07:31:07.625Z,100071.00
2022-09-26T07:33:33.988Z,100061.50
2022-09-26T07:36:05.186Z,100058.06
2022-09-26T07:38:31.876Z,100059.00
2022-09-26T07:41:00.778Z,100060.56
2022-09-26T07:43:53.649Z,100054.53
2022-09-26T07:46:32.386Z,100056.28
2022-09-26T07:49:17.086Z,100058.81
2022-09-26T07:51:43.527Z,100051.81
2022-09-26T07:54:09.933Z,100038.91
2022-09-26T07:56:36.603Z,100047.44
2022-09-26T07:59:05.192Z,100063.06
2022-09-26T08:01:32.314Z,100037.88
2022-09-26T08:03:58.844Z,100033.38
2022-09-26T08:06:25.807Z,100029.72
2022-09-26T08:08:54.988Z,100034.00
2022-09-26T08:11:22.437Z,100027.03
2022-09-26T08:13:49.197Z,100008.69
2022-09-26T08:16:23.078Z,100002.63
2022-09-26T08:18:51.388Z,100004.94
2022-09-26T08:21:18.375Z,100002.13
2022-09-26T08:23:46.072Z,99991.59
2022-09-26T08:26:13.275Z,99995.78
2022-09-26T08:28:39.715Z,99998.38
2022-09-26T08:31:07.197Z,99992.03
2022-09-26T08:33:38.961Z,99985.63
2022-09-26T08:36:13.244Z,99993.97
2022-09-26T08:38:39.791Z,99980.31
2022-09-26T08:41:24.877Z,99986.34
2022-09-26T08:44:22.518Z,99983.16
2022-09-26T08:47:02.692Z,99970.44
2022-09-26T08:49:48.268Z,99976.16
2022-09-26T08:52:40.508Z,99970.31
2022-09-26T08:55:18.798Z,99967.00
2022-09-26T08:57:53.114Z,99966.81
2022-09-26T09:00:25.243Z,99963.25
2022-09-26T09:02:57.458Z,99969.09
2022-09-26T09:05:32.853Z,99958.56
2022-09-26T09:08:01.812Z,99964.38
2022-09-26T09:10:37.935Z,99953.75
2022-09-26T09:13:22.834Z,99955.63
2022-09-26T09:15:58.465Z,99949.88
2022-09-26T09:18:44.595Z,99949.06
2022-09-26T09:21:18.764Z,99937.81
2022-09-26T09:24:10.767Z,99930.72
2022-09-26T09:30:17.162Z,99933.84
2022-09-26T09:32:51.300Z,99924.03
2022-09-26T09:35:25.284Z,99913.72
2022-09-26T09:37:54.069Z,99908.19
2022-09-26T09:40:37.007Z,99905.38
2022-09-26T09:43:07.805Z,99906.91
2022-09-26T09:45:45.062Z,99908.47
2022-09-26T09:48:15.676Z,99898.78
2022-09-26T09:51:00.908Z,99893.34
2022-09-26T09:53:46.026Z,99888.03
2022-09-26T09:56:48.428Z,99902.34
2022-09-26T09:59:36.400Z,99880.22
2022-09-26T10:02:37.707Z,99879.41
2022-09-26T10:05:44.211Z,99880.22
2022-09-26T10:08:19.670Z,99878.25
2022-09-26T10:11:13.738Z,99876.88
2022-09-26T10:13:43.499Z,99862.81
2022-09-26T10:16:15.008Z,99865.94
2022-09-26T10:19:04.067Z,99861.34
2022-09-26T10:21:34.477Z,99874.28
2022-09-26T10:24:06.659Z,99859.31
2022-09-26T10:26:35.081Z,99851.41
2022-09-26T10:29:21.387Z,99855.34
2022-09-26T10:31:55.700Z,99858.16
2022-09-26T10:34:28.013Z,99860.91
2022-09-26T10:36:54.746Z,99852.47
2022-09-26T10:39:47.836Z,99857.69
2022-09-26T10:42:20.206Z,99851.75
2022-09-26T10:44:49.260Z,99857.91
2022-09-26T10:47:19.646Z,99844.97
2022-09-26T10:49:54.463Z,99845.91
2022-09-26T10:52:29.815Z,99841.66
2022-09-26T10:55:06.695Z,99843.19
2022-09-26T10:57:40.782Z,99842.28
2022-09-26T11:00:07.942Z,99845.06
2022-09-26T11:02:36.622Z,99842.28
2022-09-26T11:05:24.066Z,99840.81
2022-09-26T11:07:52.484Z,99829.63
2022-09-26T11:10:32.438Z,99838.94
2022-09-26T11:13:02.637Z,99840.69
2022-09-26T11:15:29.624Z,99832.34
2022-09-26T11:17:56.639Z,99836.50
2022-09-26T11:20:35.462Z,99832.13
2022-09-26T11:23:17.287Z,99833.72
2022-09-26T11:26:19.270Z,99823.88
2022-09-26T11:28:53.508Z,99819.06
2022-09-26T11:31:28.962Z,99821.34
2022-09-26T11:33:59.503Z,99812.47
2022-09-26T11:36:25.886Z,99819.56
2022-09-26T11:38:56.759Z,99820.41
2022-09-26T11:41:53.563Z,99817.88
2022-09-26T11:44:23.832Z,99804.25
2022-09-26T11:47:13.078Z,99816.34
2022-09-26T11:50:10.717Z,99809.25
2022-09-26T11:53:13.253Z,99801.41
2022-09-26T11:56:15.965Z,99813.63
2022-09-26T11:59:02.356Z,99802.38
2022-09-26T12:01:48.302Z,99801.41
2022-09-26T12:05:01.059Z,99809.03
2022-09-26T12:07:37.352Z,99809.34
2022-09-26T12:10:06.996Z,99793.84
2022-09-26T12:13:04.692Z,99794.56
2022-09-26T12:15:40.146Z,99793.50
2022-09-26T12:18:14.972Z,99791.59
2022-09-26T12:21:06.069Z,99773.72
2022-09-26T12:23:36.836Z,99779.03
2022-09-26T12:26:15.735Z,99772.03
2022-09-26T12:29:03.931Z,99772.19
2022-09-26T12:31:31.975Z,99771.22
2022-09-26T12:34:06.093Z,99771.13
2022-09-26T12:37:03.043Z,99759.28
2022-09-26T12:39:57.477Z,99762.59
2022-09-26T12:42:58.972Z,99765.81
2022-09-26T12:45:54.981Z,99761.31
2022-09-26T12:49:12.850Z,99758.72
2022-09-26T12:51:47.282Z,99755.38
2022-09-26T12:54:44.822Z,99750.06
2022-09-26T12:57:26.832Z,99747.44
2022-09-26T12:59:59.315Z,99746.72
2022-09-26T13:02:42.960Z,99741.63
2022-09-26T13:05:45.025Z,99744.13
2022-09-26T13:09:08.792Z,99750.16
2022-09-26T13:11:41.183Z,99744.22
2022-09-26T13:14:14.966Z,99739.25
2022-09-26T13:17:09.959Z,99733.78
2022-09-26T13:19:48.864Z,99728.69
2022-09-26T13:22:26.051Z,99727.28
2022-09-26T13:25:02.426Z,99723.63
2022-09-26T13:27:36.291Z,99718.88
2022-09-26T13:30:11.844Z,99717.69
2022-09-26T13:32:55.135Z,99721.97
2022-09-26T13:35:27.537Z,99720.41
2022-09-26T13:38:14.259Z,99728.22
2022-09-26T13:40:40.743Z,99730.97
2022-09-26T13:43:47.551Z,99727.19
2022-09-26T13:46:34.610Z,99723.41
2022-09-26T13:49:19.998Z,99709.50
2022-09-26T13:52:27.627Z,99699.56
2022-09-26T13:55:10.284Z,99691.63
2022-09-26T13:57:43.530Z,99694.91
2022-09-26T14:00:23.207Z,99682.97
2022-09-26T14:03:12.462Z,99683.28
2022-09-26T14:05:45.945Z,99672.69
2022-09-26T14:08:43.478Z,99672.41
2022-09-26T14:11:19.053Z,99674.47
2022-09-26T14:13:47.325Z,99675.63
2022-09-26T14:16:28.972Z,99679.69
2022-09-26T14:19:09.463Z,99678.22
2022-09-26T14:21:56.820Z,99676.44
2022-09-26T14:24:37.863Z,99675.00
2022-09-26T14:27:10.296Z,99669.19
2022-09-26T14:29:39.723Z,99670.50
2022-09-26T14:32:10.212Z,99669.56
2022-09-26T14:34:45.495Z,99665.66
2022-09-26T14:37:24.159Z,99655.59
2022-09-26T14:39:59.852Z,99658.69
2022-09-26T14:42:38.094Z,99659.78
2022-09-26T14:45:08.046Z,99658.91
2022-09-26T14:47:42.660Z,99656.44
2022-09-26T14:50:34.515Z,99659.28
2022-09-26T14:53:50.711Z,99660.38
2022-09-26T14:56:38.053Z,99664.28
2022-09-26T14:59:16.630Z,99668.47
2022-09-26T15:01:46.613Z,99665.34
2022-09-26T15:04:20.715Z,99659.91
2022-09-26T15:06:52.707Z,99654.94
2022-09-26T15:09:28.118Z,99651.75
2022-09-26T15:12:01.209Z,99648.41
2022-09-26T15:14:49.870Z,99646.16
2022-09-26T15:17:32.752Z,99647.13
2022-09-26T15:20:02.595Z,99644.03
2022-09-26T15:22:30.716Z,99635.50
2022-09-26T15:25:18.633Z,99638.81
2022-09-26T15:27:50.298Z,99632.19
2022-09-26T15:30:19.352Z,99638.38
2022-09-26T15:32:49.839Z,99636.81
2022-09-26T15:35:16.781Z,99642.97
2022-09-26T15:37:43.514Z,99636.94
2022-09-26T15:40:25.656Z,99635.16
2022-09-26T15:43:11.861Z,99627.44
2022-09-26T15:45:49.795Z,99629.00
2022-09-26T15:48:19.327Z,99625.78
2022-09-26T15:50:53.967Z,99630.03
2022-09-26T15:53:39.542Z,99625.69
2022-09-26T15:56:16.823Z,99621.03
2022-09-26T15:58:52.825Z,99619.00
2022-09-26T16:01:22.567Z,99618.91
2022-09-26T16:04:13.436Z,99619.47
2022-09-26T16:06:42.505Z,99611.66
2022-09-26T16:09:12.641Z,99609.63
2022-09-26T16:11:47.506Z,99602.75
2022-09-26T16:14:50.567Z,99603.09
2022-09-26T16:17:38.759Z,99598.34
2022-09-26T16:20:11.190Z,99604.97
2022-09-26T16:22:39.988Z,99603.19
2022-09-26T16:25:15.921Z,99604.00
2022-09-26T16:27:42.801Z,99597.72
2022-09-26T16:30:30.452Z,99600.69
2022-09-26T16:33:02.937Z,99596.16
2022-09-26T16:35:33.346Z,99598.78
2022-09-26T16:38:03.264Z,99601.38
2022-09-26T16:40:32.114Z,99605.19
2022-09-26T16:43:14.653Z,99595.56
2022-09-26T16:45:56.286Z,99600.69
2022-09-26T16:48:51.247Z,99592.72
2022-09-26T16:51:19.573Z,99583.59
2022-09-26T16:53:49.488Z,99587.41
2022-09-26T16:56:19.072Z,99593.81
2022-09-26T16:58:57.627Z,99589.69
2022-09-26T17:01:43.223Z,99591.69
2022-09-26T17:04:16.149Z,99593.47
2022-09-26T17:06:42.694Z,99591.25
2022-09-26T17:09:21.343Z,99593.84
2022-09-26T17:11:50.828Z,99598.38
2022-09-26T17:14:21.765Z,99594.22
2022-09-26T17:16:54.884Z,99597.78
2022-09-26T17:19:23.106Z,99592.66
2022-09-26T17:21:50.733Z,99590.91
2022-09-26T17:24:25.447Z,99613.53
2022-09-26T17:26:56.755Z,99604.06
2022-09-26T17:29:27.014Z,99605.72
2022-09-26T17:31:55.217Z,99609.19
2022-09-26T17:34:23.034Z,99609.19
2022-09-26T17:36:49.815Z,99611.06
2022-09-26T17:39:25.360Z,99606.91
2022-09-26T17:41:57.169Z,99610.22
2022-09-26T17:44:23.703Z,99601.94
2022-09-26T17:46:54.364Z,99604.81
2022-09-26T17:49:27.940Z,99606.56
2022-09-26T17:51:57.055Z,99606.94
2022-09-26T17:54:42.428Z,99616.44
2022-09-26T17:57:12.430Z,99614.16
2022-09-26T17:59:42.193Z,99628.06
2022-09-26T18:02:27.034Z,99627.09
2022-09-26T18:04:54.066Z,99633.28
2022-09-26T18:07:22.069Z,99634.09
2022-09-26T18:09:51.318Z,99635.03
2022-09-26T18:12:26.652Z,99629.69
2022-09-26T18:28:43.051Z,99624.00
2022-09-26T18:34:46.830Z,99623.06
2022-09-26T18:37:13.415Z,99622.47
2022-09-26T18:39:42.914Z,99621.63
2022-09-26T18:43:05.607Z,99622.47
2022-09-26T18:45:59.404Z,99627.56
2022-09-26T18:52:36.965Z,99624.13
2022-09-26T18:55:44.688Z,99623.53
2022-09-26T18:58:19.318Z,99622.72
2022-09-26T19:00:48.014Z,99629.09
2022-09-26T19:03:15.536Z,99632.53
2022-09-26T19:05:42.402Z,99637.88
2022-09-26T19:08:43.256Z,99642.16
2022-09-26T19:11:21.359Z,99649.25
2022-09-26T19:13:53.350Z,99650.44
2022-09-26T19:16:20.201Z,99652.31
2022-09-26T19:18:47.728Z,99657.53
2022-09-26T19:21:32.785Z,99653.88
2022-09-26T19:24:03.681Z,99662.88
2022-09-26T19:26:34.834Z,99665.84
2022-09-26T19:29:03.479Z,99672.94
2022-09-26T19:31:30.165Z,99680.03
2022-09-26T19:33:57.495Z,99684.78
2022-09-26T19:36:24.030Z,99696.03
2022-09-26T19:38:51.287Z,99700.53
2022-09-26T19:41:18.106Z,99698.03
2022-09-26T19:43:44.658Z,99709.94
2022-09-26T19:46:23.004Z,99706.47
2022-09-26T19:48:49.458Z,99707.13
2022-09-26T19:51:19.036Z,99702.88
2022-09-26T19:53:45.774Z,99701.53
2022-09-26T19:56:17.484Z,99699.38
2022-09-26T19:58:54.270Z,99703.66
2022-09-26T20:01:28.307Z,99705.44
2022-09-26T20:03:54.978Z,99702.13
2022-09-26T20:06:25.823Z,99710.25
2022-09-26T20:09:00.522Z,99714.97
2022-09-26T20:11:27.952Z,99715.06
2022-09-26T20:14:13.101Z,99705.50
2022-09-26T20:16:42.598Z,99711.75
2022-09-26T20:19:16.454Z,99718.97
2022-09-26T20:21:43.292Z,99710.19
2022-09-26T20:24:18.510Z,99702.28
2022-09-26T20:26:46.786Z,99709.47
2022-09-26T20:29:15.092Z,99706.75
2022-09-26T20:31:45.191Z,99711.88
2022-09-26T20:34:12.141Z,99702.38
2022-09-26T20:36:48.007Z,99698.84
2022-09-26T20:39:22.955Z,99695.53
2022-09-26T20:41:51.124Z,99697.41
2022-09-26T20:44:27.920Z,99698.34
2022-09-26T20:46:59.013Z,99695.97
2022-09-26T20:49:30.159Z,99692.50
2022-09-26T20:51:59.958Z,99689.78
2022-09-26T20:54:32.967Z,99698.56
2022-09-26T20:57:01.164Z,99690.75
2022-09-26T20:59:28.753Z,99688.00
2022-09-26T21:02:00.447Z,99680.94
2022-09-26T21:04:34.675Z,99679.91
2022-09-26T21:07:03.337Z,99681.44
2022-09-26T21:09:29.817Z,99682.38
2022-09-26T21:11:56.198Z,99684.97
2022-09-26T21:14:22.912Z,99675.41
2022-09-26T21:16:51.935Z,99684.03
2022-09-26T21:19:21.836Z,99689.34
2022-09-26T21:21:50.631Z,99684.16
2022-09-26T21:24:24.932Z,99690.06
2022-09-26T21:26:51.647Z,99687.72
2022-09-26T21:29:18.310Z,99686.13
2022-09-26T21:31:49.769Z,99693.13
2022-09-26T21:34:23.986Z,99687.91
2022-09-26T21:36:53.705Z,99689.91
2022-09-26T21:39:20.136Z,99690.13
2022-09-26T21:41:49.495Z,99682.41
2022-09-26T21:44:24.579Z,99683.28
2022-09-26T21:46:51.671Z,99686.09
2022-09-26T21:49:18.618Z,99690.47
2022-09-26T21:51:50.151Z,99692.13
2022-09-26T21:54:29.116Z,99688.78
2022-09-26T21:57:15.332Z,99690.66
2022-09-26T21:59:42.758Z,99688.28
2022-09-26T22:02:09.322Z,99688.53
2022-09-26T22:04:35.900Z,99688.63
2022-09-26T22:07:02.435Z,99686.13
2022-09-26T22:09:28.817Z,99686.13
2022-09-26T22:11:55.227Z,99684.56
2022-09-26T22:14:21.724Z,99682.69
2022-09-26T22:16:48.152Z,99668.97
2022-09-26T22:19:14.894Z,99679.47
2022-09-26T22:21:41.417Z,99680.44
2022-09-26T22:24:07.919Z,99677.91
2022-09-26T22:26:34.311Z,99683.47
2022-09-26T22:29:00.676Z,99679.31
2022-09-26T22:31:27.381Z,99676.69
2022-09-26T22:34:00.061Z,99671.50
2022-09-26T22:36:27.273Z,99673.38
2022-09-26T22:38:54.884Z,99674.19
2022-09-26T22:41:21.707Z,99672.41
2022-09-26T22:43:49.185Z,99673.25
2022-09-26T22:46:16.357Z,99667.94
2022-09-26T22:48:46.046Z,99672.31
2022-09-26T22:51:14.134Z,99670.97
2022-09-26T22:53:41.974Z,99672.84
2022-09-26T22:56:11.869Z,99673.81
2022-09-26T22:58:40.962Z,99667.88
2022-09-26T23:01:10.238Z,99668.94
2022-09-26T23:03:36.719Z,99676.00
2022-09-26T23:06:04.074Z,99674.13
2022-09-26T23:08:32.415Z,99674.13
2022-09-26T23:10:58.905Z,99675.06
2022-09-26T23:13:26.817Z,99684.66
2022-09-26T23:15:53.569Z,99677.75
2022-09-26T23:18:20.738Z,99679.44
2022-09-26T23:20:47.213Z,99682.13
2022-09-26T23:23:14.836Z,99683.09
2022-09-26T23:25:48.956Z,99676.94
2022-09-26T23:28:16.973Z,99683.09
2022-09-26T23:30:43.751Z,99689.13
2022-09-26T23:33:10.626Z,99687.44
2022-09-26T23:35:37.035Z,99686.63
2022-09-26T23:38:05.417Z,99688.41
2022-09-26T23:40:32.432Z,99689.31
2022-09-26T23:42:59.065Z,99689.44
2022-09-26T23:45:26.692Z,99690.38
2022-09-26T23:47:53.081Z,99688.72
2022-09-26T23:50:19.578Z,99693.19
2022-09-26T23:52:45.942Z,99695.91
2022-09-26T23:55:12.930Z,99704.66
2022-09-26T23:57:39.301Z,99701.31
